Time;durP1;ratioP1;P1;durP2;ratioP2;P2;SDS_P1;SDS_P2;PMS_P1;PMS_P2;Temp;Humidity;BMP_temperature;BMP_pressure;BME280_temperature;BME280_humidity;BME280_pressure;Samples;Min_cycle;Max_cycle;Signal;HPM_P1;HPM_P2
2022/12/04 00:00:51;;;;;;;40.10;18.20;;;0.20;99.90;;;;;;5054772;28;20489;-55
2022/12/04 00:03:18;;;;;;;38.70;17.00;;;0.30;99.90;;;;;;5054897;28;20454;-55
2022/12/04 00:05:45;;;;;;;38.43;18.10;;;0.30;99.90;;;;;;5054593;28;20475;-55
2022/12/04 00:08:11;;;;;;;42.13;17.20;;;0.20;99.90;;;;;;5054566;28;20858;-55
2022/12/04 00:10:43;;;;;;;44.43;18.93;;;0.30;99.90;;;;;;5054582;28;20451;-55
2022/12/04 00:13:09;;;;;;;31.17;15.00;;;0.40;99.90;;;;;;5054848;28;20488;-51
2022/12/04 00:15:41;;;;;;;36.57;15.77;;;0.30;99.90;;;;;;5054298;28;21015;-52
2022/12/04 00:18:08;;;;;;;42.07;18.57;;;0.20;99.90;;;;;;5054799;28;20520;-51
2022/12/04 00:20:34;;;;;;;23.93;11.23;;;0.20;99.90;;;;;;5054354;28;20530;-50
2022/12/04 00:23:01;;;;;;;40.90;19.57;;;0.30;99.90;;;;;;5054706;28;20446;-54
2022/12/04 00:25:30;;;;;;;38.67;18.33;;;0.30;99.90;;;;;;5054522;28;20469;-51
2022/12/04 00:27:58;;;;;;;36.80;18.23;;;0.30;99.90;;;;;;5054378;28;21010;-52
2022/12/04 00:30:24;;;;;;;33.97;15.17;;;0.30;99.90;;;;;;5054343;28;20510;-53
2022/12/04 00:32:51;;;;;;;34.87;16.37;;;0.30;99.90;;;;;;5054440;28;20457;-55
2022/12/04 00:35:18;;;;;;;41.60;16.80;;;0.30;99.90;;;;;;5054124;28;20471;-55
2022/12/04 00:37:44;;;;;;;40.67;18.50;;;0.20;99.90;;;;;;5053850;28;20513;-55
2022/12/04 00:40:12;;;;;;;35.53;15.00;;;0.30;99.90;;;;;;5054388;28;20536;-55
2022/12/04 00:42:39;;;;;;;35.20;16.50;;;0.30;99.90;;;;;;5052974;28;20451;-54
2022/12/04 00:45:07;;;;;;;38.87;17.40;;;0.30;99.90;;;;;;5045631;28;20466;-55
2022/12/04 00:47:34;;;;;;;34.57;16.97;;;0.30;99.90;;;;;;5045287;28;20508;-55
2022/12/04 00:50:01;;;;;;;37.73;17.13;;;0.30;99.90;;;;;;5042182;28;20451;-54
2022/12/04 00:52:27;;;;;;;37.40;17.73;;;0.30;99.90;;;;;;5049706;28;20509;-55
2022/12/04 00:54:55;;;;;;;38.80;17.20;;;0.30;99.90;;;;;;5054048;28;20472;-55
2022/12/04 00:57:21;;;;;;;36.40;17.57;;;0.40;99.90;;;;;;5053589;28;20454;-54
2022/12/04 00:59:48;;;;;;;35.50;16.13;;;0.40;99.90;;;;;;5053926;28;21012;-55
2022/12/04 01:02:16;;;;;;;43.53;17.10;;;0.30;99.90;;;;;;5053635;28;20457;-53
2022/12/04 01:04:43;;;;;;;34.60;16.57;;;0.30;99.90;;;;;;5053564;28;20501;-51
2022/12/04 01:07:09;;;;;;;39.17;17.47;;;0.30;99.90;;;;;;5053696;28;20450;-52
2022/12/04 01:09:36;;;;;;;40.90;19.00;;;0.30;99.90;;;;;;5053509;28;20966;-53
2022/12/04 01:12:03;;;;;;;37.77;17.77;;;0.30;99.90;;;;;;5053562;28;20451;-53
2022/12/04 01:14:29;;;;;;;34.37;15.50;;;0.30;99.90;;;;;;5053273;28;20449;-55
2022/12/04 01:16:56;;;;;;;32.07;16.40;;;0.30;99.90;;;;;;5053365;28;20473;-53
2022/12/04 01:19:24;;;;;;;38.43;17.37;;;0.30;99.90;;;;;;5053587;28;20455;-54
2022/12/04 01:21:52;;;;;;;38.57;17.20;;;0.30;99.90;;;;;;5053471;28;20488;-52
2022/12/04 01:24:19;;;;;;;37.87;17.10;;;0.30;99.90;;;;;;5053306;28;20454;-55
2022/12/04 01:26:45;;;;;;;36.07;15.73;;;0.40;99.90;;;;;;5053064;28;20472;-55
2022/12/04 01:29:12;;;;;;;36.40;17.87;;;0.40;99.90;;;;;;5053107;28;20455;-53
2022/12/04 01:31:39;;;;;;;35.43;17.17;;;0.30;99.90;;;;;;5053084;28;20448;-55
2022/12/04 01:34:06;;;;;;;33.60;14.73;;;0.30;99.90;;;;;;5053188;28;20455;-55
2022/12/04 01:36:34;;;;;;;32.00;14.33;;;0.30;99.90;;;;;;5052838;28;20471;-55
2022/12/04 01:39:00;;;;;;;38.67;18.97;;;0.30;99.90;;;;;;5053060;28;20450;-54
2022/12/04 01:41:30;;;;;;;42.20;17.00;;;0.20;99.90;;;;;;5052976;28;20493;-53
2022/12/04 01:44:12;;;;;;;30.10;15.10;;;0.20;99.90;;;;;;5052623;28;20449;-55
2022/12/04 01:46:39;;;;;;;34.20;16.47;;;0.30;99.90;;;;;;5052815;28;20477;-54
2022/12/04 01:49:10;;;;;;;35.80;16.60;;;0.30;99.90;;;;;;5052947;28;20454;-55
2022/12/04 01:51:41;;;;;;;33.40;16.80;;;0.30;99.90;;;;;;5052469;28;20535;-55
2022/12/04 01:54:11;;;;;;;36.30;16.63;;;0.30;99.90;;;;;;5051863;28;20505;-54
2022/12/04 01:56:42;;;;;;;37.43;16.13;;;0.30;99.90;;;;;;5052097;28;20466;-55
2022/12/04 01:59:10;;;;;;;35.60;16.30;;;0.30;99.90;;;;;;5052949;28;20460;-55
2022/12/04 02:01:42;;;;;;;34.67;16.17;;;0.40;99.90;;;;;;5052850;28;20498;-51
2022/12/04 02:04:09;;;;;;;34.57;17.10;;;0.40;99.90;;;;;;5052987;28;20457;-53
2022/12/04 02:06:37;;;;;;;36.37;16.57;;;0.40;99.90;;;;;;5052399;28;20532;-49
2022/12/04 02:09:04;;;;;;;34.97;16.30;;;0.40;99.90;;;;;;5052800;28;20459;-50
2022/12/04 02:11:38;;;;;;;36.50;15.70;;;0.40;99.90;;;;;;5052688;28;20454;-50
2022/12/04 02:14:15;;;;;;;36.03;16.27;;;0.40;99.90;;;;;;5045193;28;20444;-55
2022/12/04 02:16:50;;;;;;;26.87;12.70;;;0.30;99.90;;;;;;5052025;28;20521;-55
2022/12/04 02:19:45;;;;;;;38.57;16.43;;;0.30;99.90;;;;;;5052421;28;20458;-55
2022/12/04 02:22:29;;;;;;;32.23;16.10;;;0.30;99.90;;;;;;5051992;28;20481;-55
2022/12/04 02:25:05;;;;;;;29.90;13.57;;;0.30;99.90;;;;;;5052284;28;20454;-57
2022/12/04 02:27:58;;;;;;;37.47;16.13;;;0.20;99.90;;;;;;5052092;28;20797;-54
2022/12/04 02:30:27;;;;;;;32.17;15.37;;;0.20;99.90;;;;;;5052395;28;20451;-54
2022/12/04 02:33:01;;;;;;;31.27;14.60;;;0.20;99.90;;;;;;5052221;28;20466;-53
2022/12/04 02:35:30;;;;;;;28.67;13.83;;;0.20;99.90;;;;;;5052222;28;20473;-50
2022/12/04 02:38:04;;;;;;;35.60;16.00;;;0.20;99.90;;;;;;5051562;28;20518;-48
2022/12/04 02:40:38;;;;;;;37.60;17.13;;;0.20;99.90;;;;;;5052015;28;20581;-48
2022/12/04 02:43:12;;;;;;;33.77;15.73;;;0.20;99.90;;;;;;5051735;28;20454;-52
2022/12/04 02:45:44;;;;;;;32.73;14.07;;;0.20;99.90;;;;;;5051841;28;20470;-51
2022/12/04 02:48:15;;;;;;;32.73;15.67;;;0.20;99.90;;;;;;5051636;28;20506;-51
2022/12/04 02:50:42;;;;;;;35.83;15.20;;;0.10;99.90;;;;;;5051767;28;20507;-54
2022/12/04 02:53:12;;;;;;;32.50;16.33;;;0.10;99.90;;;;;;5052023;28;20488;-50
2022/12/04 02:55:43;;;;;;;35.50;15.77;;;0.10;99.90;;;;;;5051959;28;20476;-53
2022/12/04 02:58:16;;;;;;;30.80;13.53;;;0.10;99.90;;;;;;5051667;28;20449;-55
2022/12/04 03:00:45;;;;;;;36.47;14.93;;;0.10;99.90;;;;;;5051751;28;20513;-54
2022/12/04 03:03:15;;;;;;;32.67;15.63;;;0.10;99.90;;;;;;5051744;28;20449;-55
2022/12/04 03:05:54;;;;;;;34.40;17.00;;;0.10;99.90;;;;;;5051424;28;20489;-54
2022/12/04 03:08:26;;;;;;;33.00;15.80;;;0.10;99.90;;;;;;5051598;28;20498;-50
2022/12/04 03:10:56;;;;;;;22.80;11.73;;;0.10;99.90;;;;;;5051780;28;20814;-47
2022/12/04 03:13:29;;;;;;;30.23;12.63;;;0.10;99.90;;;;;;5051497;28;20445;-50
2022/12/04 03:16:03;;;;;;;34.57;15.43;;;0.20;99.90;;;;;;5051284;28;20545;-49
2022/12/04 03:18:33;;;;;;;29.10;13.87;;;0.10;99.90;;;;;;5052107;28;20448;-52
2022/12/04 03:21:02;;;;;;;32.27;13.77;;;0.10;99.90;;;;;;5051892;28;20488;-54
2022/12/04 03:23:33;;;;;;;37.00;15.17;;;0.10;99.90;;;;;;5051723;28;20457;-51
2022/12/04 03:26:04;;;;;;;28.93;13.73;;;0.10;99.90;;;;;;5051484;28;20523;-51
2022/12/04 03:28:42;;;;;;;29.57;13.93;;;0.10;99.90;;;;;;5051586;28;20458;-55
2022/12/04 03:31:10;;;;;;;27.50;12.70;;;0.20;99.90;;;;;;5051523;28;20450;-55
2022/12/04 03:33:40;;;;;;;29.60;14.30;;;0.10;99.90;;;;;;5051462;28;20462;-55
2022/12/04 03:36:13;;;;;;;29.90;13.70;;;0.10;99.90;;;;;;5051137;28;20474;-54
2022/12/04 03:38:44;;;;;;;29.43;14.43;;;0.10;99.90;;;;;;5051255;28;20514;-55
2022/12/04 03:41:19;;;;;;;31.90;14.00;;;0.10;99.90;;;;;;5051167;28;20486;-55
2022/12/04 03:43:53;;;;;;;30.33;14.03;;;0.00;99.90;;;;;;5051138;28;20448;-53
2022/12/04 03:46:26;;;;;;;29.50;13.63;;;0.00;99.90;;;;;;5050925;28;20539;-53
2022/12/04 03:48:57;;;;;;;33.80;15.27;;;0.10;99.90;;;;;;5051401;28;20458;-55
2022/12/04 03:51:29;;;;;;;31.37;14.87;;;0.00;99.90;;;;;;5051083;28;20458;-53
2022/12/04 03:54:01;;;;;;;29.90;13.23;;;0.00;99.90;;;;;;5051540;28;20449;-56
2022/12/04 03:56:30;;;;;;;27.80;12.37;;;0.00;99.90;;;;;;5050848;28;20533;-52
2022/12/04 03:59:04;;;;;;;25.93;12.53;;;0.00;99.90;;;;;;5050980;28;20445;-55
2022/12/04 04:01:38;;;;;;;27.77;12.73;;;0.10;99.90;;;;;;5050941;28;20481;-55
2022/12/04 04:04:07;;;;;;;29.87;13.40;;;0.10;99.90;;;;;;5051261;28;20452;-56
2022/12/04 04:06:38;;;;;;;27.40;13.10;;;0.10;99.90;;;;;;5051035;28;20468;-56
2022/12/04 04:09:12;;;;;;;28.97;13.67;;;0.10;99.90;;;;;;5051070;28;20439;-53
2022/12/04 04:11:45;;;;;;;27.90;13.80;;;0.10;99.90;;;;;;5050965;28;20448;-54
2022/12/04 04:25:28;;;;;;;26.43;13.30;;;0.10;99.90;;;;;;5028431;28;20454;-56
2022/12/04 04:27:57;;;;;;;28.47;13.40;;;0.10;99.90;;;;;;5054201;28;20454;-56
2022/12/04 04:30:27;;;;;;;23.97;12.33;;;0.10;99.90;;;;;;5054608;28;20449;-50
2022/12/04 04:32:59;;;;;;;28.00;14.00;;;0.10;99.90;;;;;;5054432;28;20439;-55
2022/12/04 04:35:35;;;;;;;26.03;13.93;;;0.20;99.90;;;;;;5054466;28;20542;-49
2022/12/04 04:38:10;;;;;;;26.83;12.77;;;0.20;99.90;;;;;;5053638;28;20526;-56
2022/12/04 04:40:43;;;;;;;30.13;13.93;;;0.20;99.90;;;;;;5054210;28;20442;-52
2022/12/04 04:43:16;;;;;;;24.27;12.17;;;0.20;99.90;;;;;;5053782;28;20447;-47
2022/12/04 04:45:47;;;;;;;27.33;12.43;;;0.20;99.90;;;;;;5053706;28;20469;-50
2022/12/04 04:48:19;;;;;;;26.07;13.20;;;0.20;99.90;;;;;;5053752;28;20850;-49
2022/12/04 04:50:46;;;;;;;26.70;12.63;;;0.20;99.90;;;;;;5053841;28;20450;-52
2022/12/04 04:53:18;;;;;;;24.20;12.37;;;0.20;99.90;;;;;;5053999;28;20445;-50
2022/12/04 04:55:45;;;;;;;28.77;14.40;;;0.20;99.90;;;;;;5053808;28;21013;-52
2022/12/04 04:58:15;;;;;;;28.63;13.63;;;0.20;99.90;;;;;;5053683;28;20450;-51
2022/12/04 05:00:45;;;;;;;25.17;13.33;;;0.30;99.90;;;;;;5054045;28;20818;-50
2022/12/04 05:03:13;;;;;;;25.33;12.60;;;0.30;99.90;;;;;;5053769;28;20505;-50
2022/12/04 05:05:40;;;;;;;27.30;12.83;;;0.30;99.90;;;;;;5053549;28;21008;-53
2022/12/04 05:08:06;;;;;;;21.77;12.20;;;0.20;99.90;;;;;;5053382;28;20864;-48
2022/12/04 05:10:34;;;;;;;22.90;11.23;;;0.20;99.90;;;;;;5053642;28;20482;-52
2022/12/04 05:13:01;;;;;;;27.27;13.47;;;0.20;99.90;;;;;;5053436;28;20992;-48
2022/12/04 05:15:27;;;;;;;24.17;11.90;;;0.20;99.90;;;;;;5053124;28;20988;-51
2022/12/04 05:17:54;;;;;;;27.53;14.17;;;0.20;99.90;;;;;;5053361;28;20447;-50
2022/12/04 05:20:22;;;;;;;30.00;14.33;;;0.20;99.90;;;;;;5053312;28;20454;-47
2022/12/04 05:22:49;;;;;;;17.47;9.37;;;0.30;99.90;;;;;;5053117;28;20494;-51
2022/12/04 05:25:15;;;;;;;26.53;14.20;;;0.30;99.90;;;;;;5053317;28;20472;-49
2022/12/04 05:27:42;;;;;;;30.63;14.33;;;0.30;99.90;;;;;;5053189;28;20888;-52
2022/12/04 05:30:11;;;;;;;24.03;13.37;;;0.20;99.90;;;;;;5053127;28;20510;-47
2022/12/04 05:32:38;;;;;;;27.67;13.63;;;0.20;99.90;;;;;;5053331;28;20453;-54
2022/12/04 05:35:05;;;;;;;23.90;12.63;;;0.20;99.90;;;;;;5053060;28;20495;-49
2022/12/04 05:37:37;;;;;;;24.13;13.77;;;0.20;99.90;;;;;;5052726;28;20460;-50
2022/12/04 05:40:04;;;;;;;30.30;14.20;;;0.20;99.90;;;;;;5053075;28;20929;-49
2022/12/04 05:42:31;;;;;;;23.53;12.27;;;0.20;99.90;;;;;;5052490;28;20991;-49
2022/12/04 05:44:57;;;;;;;24.77;13.07;;;0.20;99.90;;;;;;5052563;28;20945;-50
2022/12/04 05:47:24;;;;;;;25.33;12.77;;;0.30;99.90;;;;;;5052618;28;20452;-52
2022/12/04 05:49:51;;;;;;;18.17;9.27;;;0.30;99.90;;;;;;5052987;28;20447;-52
2022/12/04 05:52:17;;;;;;;24.33;14.17;;;0.30;99.90;;;;;;5053175;28;20450;-46
2022/12/04 05:54:46;;;;;;;16.70;9.33;;;0.30;99.90;;;;;;5052943;28;20454;-53
2022/12/04 05:57:12;;;;;;;23.23;12.17;;;0.30;99.90;;;;;;5052833;28;20451;-52
2022/12/04 05:59:39;;;;;;;21.50;11.37;;;0.30;99.90;;;;;;5052580;28;20470;-51
2022/12/04 06:02:06;;;;;;;19.23;10.90;;;0.30;99.90;;;;;;5052995;28;20841;-49
2022/12/04 06:04:32;;;;;;;22.23;11.63;;;0.30;99.90;;;;;;5052677;28;20872;-51
2022/12/04 06:06:59;;;;;;;23.07;12.70;;;0.30;99.90;;;;;;5052203;28;20882;-49
2022/12/04 06:09:26;;;;;;;22.67;11.43;;;0.30;99.90;;;;;;5052487;28;20937;-53
2022/12/04 06:11:57;;;;;;;25.97;13.10;;;0.30;99.90;;;;;;5052219;28;21149;-46
2022/12/04 06:14:24;;;;;;;24.50;12.30;;;0.30;99.90;;;;;;5052426;28;20524;-46
2022/12/04 06:16:51;;;;;;;20.77;11.03;;;0.30;99.90;;;;;;5052125;28;20474;-50
2022/12/04 06:19:19;;;;;;;22.60;12.80;;;0.20;99.90;;;;;;5052399;28;20867;-47
2022/12/04 06:21:48;;;;;;;20.77;11.17;;;0.30;99.90;;;;;;5052457;28;20533;-52
2022/12/04 06:24:18;;;;;;;18.37;11.07;;;0.30;99.90;;;;;;5052816;28;20813;-47
2022/12/04 06:26:44;;;;;;;17.63;10.07;;;0.20;99.90;;;;;;5052389;28;20469;-50
2022/12/04 06:29:13;;;;;;;20.53;9.93;;;0.30;99.90;;;;;;5052397;28;20450;-56
2022/12/04 06:31:40;;;;;;;20.57;11.40;;;0.30;99.90;;;;;;5052249;28;20496;-49
2022/12/04 06:34:08;;;;;;;20.00;10.77;;;0.30;99.90;;;;;;5052251;28;20455;-54
2022/12/04 06:36:35;;;;;;;19.17;11.87;;;0.40;99.90;;;;;;5052004;28;20523;-52
2022/12/04 06:39:03;;;;;;;20.40;11.53;;;0.40;99.90;;;;;;5052236;28;20550;-46
2022/12/04 06:41:30;;;;;;;22.23;12.37;;;0.30;99.90;;;;;;5051762;28;20486;-52
2022/12/04 06:43:57;;;;;;;16.20;10.20;;;0.30;99.90;;;;;;5048695;28;20974;-46
2022/12/04 06:46:27;;;;;;;17.17;9.53;;;0.30;99.90;;;;;;5040008;28;20977;-49
2022/12/04 06:48:54;;;;;;;20.40;11.57;;;0.30;99.90;;;;;;5050762;28;20470;-51
2022/12/04 06:51:23;;;;;;;15.27;9.00;;;0.30;99.90;;;;;;5051697;28;21155;-49
2022/12/04 06:53:50;;;;;;;17.77;9.63;;;0.30;99.90;;;;;;5051656;28;20446;-49
2022/12/04 06:56:19;;;;;;;16.63;9.33;;;0.30;99.90;;;;;;5051314;28;20528;-51
2022/12/04 06:58:48;;;;;;;16.77;9.73;;;0.30;99.90;;;;;;5051468;28;20450;-49
2022/12/04 07:01:17;;;;;;;17.03;9.83;;;0.30;99.90;;;;;;5051934;28;20536;-50
2022/12/04 07:03:45;;;;;;;14.03;8.23;;;0.40;99.90;;;;;;5051683;28;20447;-49
2022/12/04 07:06:14;;;;;;;17.93;10.27;;;0.40;99.90;;;;;;5051153;28;20537;-52
2022/12/04 07:08:41;;;;;;;16.83;10.03;;;0.50;99.90;;;;;;5051675;28;20457;-51
2022/12/04 07:11:08;;;;;;;19.83;11.10;;;0.40;99.90;;;;;;5051536;28;20507;-51
2022/12/04 07:13:35;;;;;;;16.43;9.67;;;0.30;99.90;;;;;;5051801;28;20465;-47
2022/12/04 07:16:03;;;;;;;18.37;9.87;;;0.30;99.90;;;;;;5051317;28;20525;-52
2022/12/04 07:18:30;;;;;;;16.23;9.27;;;0.30;99.90;;;;;;5051560;28;20459;-49
2022/12/04 07:20:59;;;;;;;18.50;11.00;;;0.30;99.90;;;;;;5051530;28;20465;-47
2022/12/04 07:23:25;;;;;;;17.77;10.67;;;0.30;99.90;;;;;;5051594;28;20489;-47
2022/12/04 07:25:52;;;;;;;18.23;10.13;;;0.30;99.90;;;;;;5051118;28;20995;-49
2022/12/04 07:28:18;;;;;;;15.83;9.47;;;0.30;99.90;;;;;;5051159;28;20952;-49
2022/12/04 07:30:45;;;;;;;16.70;10.30;;;0.30;99.90;;;;;;5051338;28;20937;-49
2022/12/04 07:33:12;;;;;;;19.53;10.40;;;0.40;99.90;;;;;;5050976;28;20441;-50
2022/12/04 07:35:39;;;;;;;17.23;10.33;;;0.50;99.90;;;;;;5051073;28;20527;-53
2022/12/04 07:38:07;;;;;;;17.23;10.80;;;0.50;99.90;;;;;;5051075;28;20464;-52
2022/12/04 07:40:34;;;;;;;18.63;10.10;;;0.40;99.90;;;;;;5051263;28;20453;-51
2022/12/04 07:43:00;;;;;;;20.27;11.03;;;0.50;99.90;;;;;;5051603;28;20482;-49
2022/12/04 07:45:27;;;;;;;17.90;9.77;;;0.50;99.90;;;;;;5051191;28;20472;-52
2022/12/04 07:47:54;;;;;;;19.27;10.13;;;0.50;99.90;;;;;;5051158;28;20452;-51
2022/12/04 07:50:20;;;;;;;17.27;10.00;;;0.50;99.90;;;;;;5051309;28;20504;-54
2022/12/04 07:52:47;;;;;;;18.93;11.57;;;0.50;99.90;;;;;;5053263;28;20659;-54
2022/12/04 07:55:15;;;;;;;17.67;10.07;;;0.50;99.90;;;;;;5054875;28;20603;-54
2022/12/04 07:57:42;;;;;;;17.43;9.83;;;0.40;99.90;;;;;;5054774;28;20463;-48
2022/12/04 08:00:10;;;;;;;20.87;10.37;;;0.50;99.90;;;;;;5055186;28;20445;-49
2022/12/04 08:02:37;;;;;;;20.73;10.63;;;0.50;99.90;;;;;;5054674;28;20494;-52
2022/12/04 08:05:03;;;;;;;21.53;11.77;;;0.60;99.90;;;;;;5054886;28;20472;-51
2022/12/04 08:07:31;;;;;;;18.47;11.10;;;0.70;99.90;;;;;;5054402;28;20482;-49
2022/12/04 08:09:58;;;;;;;21.53;11.63;;;0.60;99.90;;;;;;5054729;28;20989;-51
2022/12/04 08:12:26;;;;;;;22.37;12.40;;;0.60;99.90;;;;;;5054797;28;20789;-49
2022/12/04 08:14:52;;;;;;;19.87;11.43;;;0.50;99.90;;;;;;5054781;28;20589;-48
2022/12/04 08:17:19;;;;;;;18.50;11.17;;;0.50;99.90;;;;;;5054356;28;20820;-49
2022/12/04 08:19:46;;;;;;;19.00;12.23;;;0.50;99.90;;;;;;5054468;28;20827;-53
2022/12/04 08:22:12;;;;;;;20.33;11.07;;;0.60;99.90;;;;;;5054398;28;21007;-49
2022/12/04 08:24:39;;;;;;;18.60;10.27;;;0.60;99.90;;;;;;5054639;28;20455;-48
2022/12/04 08:27:06;;;;;;;22.30;11.53;;;0.70;99.90;;;;;;5054501;28;21018;-53
2022/12/04 08:29:34;;;;;;;18.70;10.17;;;0.60;99.90;;;;;;5054355;28;20444;-47
2022/12/04 08:32:01;;;;;;;21.13;12.43;;;0.60;99.90;;;;;;5054465;28;20454;-54
2022/12/04 08:34:27;;;;;;;21.27;11.97;;;0.60;99.90;;;;;;5054127;28;20447;-50
2022/12/04 08:36:54;;;;;;;23.40;12.47;;;0.60;99.90;;;;;;5054100;28;20479;-60
2022/12/04 08:39:21;;;;;;;21.87;11.73;;;0.60;99.90;;;;;;5054448;28;20450;-50
2022/12/04 08:41:47;;;;;;;18.10;11.13;;;0.60;99.90;;;;;;5054133;28;20447;-50
2022/12/04 08:44:14;;;;;;;19.00;11.30;;;0.70;99.90;;;;;;5054105;28;20445;-49
2022/12/04 08:46:42;;;;;;;19.90;10.33;;;0.60;99.90;;;;;;5053900;28;20475;-48
2022/12/04 08:49:09;;;;;;;19.73;10.90;;;0.60;99.90;;;;;;5053977;28;20960;-52
2022/12/04 08:51:36;;;;;;;21.43;12.47;;;0.60;99.90;;;;;;5054194;28;20470;-48
2022/12/04 08:54:05;;;;;;;22.17;12.30;;;0.60;99.90;;;;;;5054202;28;20820;-52
2022/12/04 08:56:33;;;;;;;21.40;11.33;;;0.50;99.90;;;;;;5053806;28;20471;-51
2022/12/04 08:59:00;;;;;;;21.77;12.03;;;0.50;99.90;;;;;;5053723;28;20447;-49
2022/12/04 09:01:28;;;;;;;16.97;10.50;;;0.60;99.90;;;;;;5053767;28;21014;-48
2022/12/04 09:03:57;;;;;;;17.33;10.60;;;0.60;99.90;;;;;;5052939;28;20481;-51
2022/12/04 09:06:24;;;;;;;19.30;10.20;;;0.60;99.90;;;;;;5045082;28;20485;-48
2022/12/04 09:08:54;;;;;;;18.53;10.57;;;0.60;99.90;;;;;;5043431;28;20501;-53
2022/12/04 09:11:22;;;;;;;22.47;12.07;;;0.60;99.90;;;;;;5041775;28;20442;-52
2022/12/04 09:13:49;;;;;;;22.10;12.17;;;0.70;99.90;;;;;;5052157;28;20463;-54
2022/12/04 09:16:18;;;;;;;23.03;13.33;;;0.70;99.90;;;;;;5053064;28;21019;-49
2022/12/04 09:18:45;;;;;;;20.27;11.80;;;0.70;99.90;;;;;;5053621;28;20962;-52
2022/12/04 09:21:15;;;;;;;20.47;10.77;;;0.80;99.90;;;;;;5053407;28;20452;-52
2022/12/04 09:23:42;;;;;;;21.20;12.40;;;0.80;99.90;;;;;;5049638;28;20613;-60
2022/12/04 09:26:19;;;;;;;23.63;12.53;;;0.80;99.90;;;;;;5051688;28;20526;-59
2022/12/04 09:28:46;;;;;;;20.60;11.43;;;0.80;99.90;;;;;;5052710;28;20799;-58
2022/12/04 09:31:13;;;;;;;22.20;13.57;;;0.80;99.90;;;;;;5052962;28;20453;-59
2022/12/04 09:33:40;;;;;;;20.37;11.60;;;0.80;99.90;;;;;;5052677;28;20447;-59
2022/12/04 09:36:07;;;;;;;20.00;11.97;;;0.80;99.90;;;;;;5052789;28;20812;-60
2022/12/04 09:38:35;;;;;;;23.33;12.30;;;0.80;99.90;;;;;;5050967;28;20467;-58
2022/12/04 09:41:07;;;;;;;23.07;13.07;;;0.80;99.90;;;;;;5051951;28;20462;-58
2022/12/04 09:43:42;;;;;;;20.93;11.17;;;0.80;99.90;;;;;;5051720;28;20487;-58
2022/12/04 09:46:15;;;;;;;17.97;10.20;;;0.80;99.90;;;;;;5052467;28;20502;-56
2022/12/04 09:48:43;;;;;;;23.07;12.73;;;0.80;99.90;;;;;;5052462;28;20449;-55
2022/12/04 09:51:17;;;;;;;22.70;12.33;;;0.80;99.90;;;;;;5052632;28;20455;-53
2022/12/04 09:53:50;;;;;;;22.60;13.37;;;1.00;99.90;;;;;;5052001;28;20831;-57
2022/12/04 09:56:19;;;;;;;26.43;13.63;;;1.00;99.90;;;;;;5052411;28;20837;-54
2022/12/04 09:58:50;;;;;;;25.23;13.37;;;1.10;99.90;;;;;;5052401;28;21053;-56
2022/12/04 10:01:22;;;;;;;20.03;10.93;;;1.00;99.90;;;;;;5052004;28;20462;-58
2022/12/04 10:03:49;;;;;;;25.00;13.77;;;1.00;99.90;;;;;;5051822;28;20487;-52
2022/12/04 10:06:20;;;;;;;25.20;13.77;;;1.00;99.90;;;;;;5051450;28;20471;-52
2022/12/04 10:08:56;;;;;;;24.40;13.80;;;1.00;99.90;;;;;;5052311;28;20463;-52
2022/12/04 10:11:29;;;;;;;24.33;13.20;;;0.90;99.90;;;;;;5051828;28;20463;-52
2022/12/04 10:14:09;;;;;;;25.50;13.37;;;0.90;99.90;;;;;;5051717;28;20443;-52
2022/12/04 10:16:46;;;;;;;25.07;14.53;;;0.90;99.90;;;;;;5050537;28;21014;-55
2022/12/04 10:19:24;;;;;;;27.10;13.30;;;1.00;99.90;;;;;;5052129;28;20450;-53
2022/12/04 10:22:04;;;;;;;26.23;13.27;;;1.10;99.90;;;;;;5051942;28;20471;-59
2022/12/04 10:24:43;;;;;;;23.63;13.90;;;1.20;99.90;;;;;;5051540;28;20892;-56
2022/12/04 10:27:14;;;;;;;26.37;13.67;;;1.20;99.90;;;;;;5051479;28;20470;-55
2022/12/04 10:29:43;;;;;;;20.43;11.67;;;1.20;99.90;;;;;;5051833;28;20456;-60
2022/12/04 10:32:18;;;;;;;22.43;13.50;;;1.20;99.90;;;;;;5052152;28;20466;-59
2022/12/04 10:34:46;;;;;;;23.90;12.93;;;1.10;99.90;;;;;;5051402;28;20459;-58
2022/12/04 10:37:14;;;;;;;24.37;12.73;;;1.10;99.90;;;;;;5051455;28;20464;-52
2022/12/04 10:39:49;;;;;;;24.37;14.07;;;1.10;99.90;;;;;;5051218;28;20455;-55
2022/12/04 10:42:25;;;;;;;24.87;13.37;;;1.10;99.90;;;;;;5051928;28;20454;-56
2022/12/04 10:44:52;;;;;;;24.07;14.23;;;1.10;99.90;;;;;;5051018;28;20864;-52
2022/12/04 10:47:21;;;;;;;26.47;14.43;;;1.10;99.90;;;;;;5051157;28;20455;-57
2022/12/04 10:49:48;;;;;;;23.20;13.37;;;1.10;99.90;;;;;;5051222;28;20966;-55
2022/12/04 10:52:15;;;;;;;25.50;13.10;;;1.10;99.90;;;;;;5051610;28;20501;-56
2022/12/04 10:54:48;;;;;;;22.87;13.27;;;1.10;99.90;;;;;;5051264;28;20447;-58
2022/12/04 10:57:16;;;;;;;30.63;15.10;;;1.10;99.90;;;;;;5051321;28;20850;-54
2022/12/04 10:59:49;;;;;;;24.97;13.27;;;1.20;99.90;;;;;;5051318;28;20577;-56
2022/12/04 11:02:22;;;;;;;26.27;14.80;;;1.20;99.90;;;;;;5051025;28;20969;-59
2022/12/04 11:04:55;;;;;;;29.37;15.03;;;1.20;99.90;;;;;;5051423;28;20488;-56
2022/12/04 11:07:24;;;;;;;26.20;14.20;;;1.20;99.90;;;;;;5051032;28;20517;-60
2022/12/04 11:09:57;;;;;;;23.43;13.27;;;1.20;99.90;;;;;;5048586;28;20451;-53
2022/12/04 11:12:24;;;;;;;22.77;12.37;;;1.20;99.90;;;;;;5046794;28;20931;-56
2022/12/04 11:15:00;;;;;;;23.90;13.20;;;1.20;99.90;;;;;;5042285;28;20457;-55
2022/12/04 11:17:27;;;;;;;22.97;13.03;;;1.20;99.90;;;;;;5043789;28;20483;-55
2022/12/04 11:20:00;;;;;;;23.33;12.50;;;1.20;99.90;;;;;;5042067;28;20452;-57
2022/12/04 11:22:26;;;;;;;25.83;14.00;;;1.20;99.90;;;;;;5043085;28;20858;-54
2022/12/04 11:24:58;;;;;;;21.30;13.17;;;1.20;99.90;;;;;;5039772;28;21830;-55
2022/12/04 11:27:30;;;;;;;28.60;14.13;;;1.20;99.90;;;;;;5032699;28;20440;-54
2022/12/04 11:29:57;;;;;;;22.93;11.93;;;1.30;99.90;;;;;;5035176;28;20927;-54
2022/12/04 11:32:28;;;;;;;24.13;13.17;;;1.40;99.90;;;;;;5034959;28;20464;-53
2022/12/04 11:34:59;;;;;;;22.30;11.97;;;1.40;99.90;;;;;;5035020;28;20441;-57
2022/12/04 11:37:30;;;;;;;26.30;13.63;;;1.30;99.90;;;;;;5034455;28;20460;-60
2022/12/04 11:39:58;;;;;;;25.40;15.60;;;1.30;99.90;;;;;;5035118;28;20472;-57
2022/12/04 11:42:27;;;;;;;25.73;13.97;;;1.40;99.90;;;;;;5041794;28;20452;-53
2022/12/04 11:44:56;;;;;;;28.43;14.27;;;1.40;99.90;;;;;;5061048;28;20487;-53
2022/12/04 11:47:25;;;;;;;30.03;14.93;;;1.50;99.90;;;;;;5054684;28;20455;-52
2022/12/04 11:50:02;;;;;;;28.17;14.70;;;1.50;99.90;;;;;;5055268;28;20892;-53
2022/12/04 11:52:41;;;;;;;28.87;14.97;;;1.60;99.90;;;;;;5055148;28;20517;-55
2022/12/04 11:55:17;;;;;;;24.30;12.60;;;1.70;99.90;;;;;;5055013;28;20482;-49
2022/12/04 11:57:49;;;;;;;22.33;12.77;;;1.50;99.90;;;;;;5055017;28;20443;-53
2022/12/04 12:00:17;;;;;;;24.60;13.03;;;1.50;99.90;;;;;;5054913;28;20447;-53
2022/12/04 12:03:09;;;;;;;24.73;13.90;;;1.50;99.90;;;;;;5054857;28;20452;-53
2022/12/04 12:05:52;;;;;;;27.17;13.37;;;1.50;99.90;;;;;;5054631;28;20467;-54
2022/12/04 12:08:33;;;;;;;24.60;13.67;;;1.50;99.90;;;;;;5055021;28;20452;-50
2022/12/04 12:11:09;;;;;;;27.87;13.13;;;1.60;99.90;;;;;;5054565;28;20439;-51
2022/12/04 12:13:46;;;;;;;27.20;13.10;;;1.60;99.90;;;;;;5054689;28;20855;-55
2022/12/04 12:16:21;;;;;;;25.37;13.47;;;1.60;99.90;;;;;;5054375;28;20471;-52
2022/12/04 12:19:07;;;;;;;24.93;14.70;;;1.50;99.90;;;;;;5054456;28;20497;-54
2022/12/04 12:21:43;;;;;;;24.63;12.47;;;1.50;99.90;;;;;;5054615;28;20860;-54
2022/12/04 12:24:20;;;;;;;23.97;13.17;;;1.50;99.90;;;;;;5054555;28;20510;-55
2022/12/04 12:26:54;;;;;;;25.13;13.27;;;1.60;99.90;;;;;;5054130;28;20529;-55
2022/12/04 12:29:34;;;;;;;19.20;10.00;;;1.70;99.90;;;;;;5054488;28;20444;-55
2022/12/04 12:32:12;;;;;;;24.33;12.30;;;1.70;99.90;;;;;;5054332;28;20447;-54
2022/12/04 12:34:41;;;;;;;28.03;15.37;;;1.70;99.90;;;;;;5054522;28;20444;-53
2022/12/04 12:37:18;;;;;;;25.23;13.13;;;1.70;99.90;;;;;;5054160;28;20486;-54
2022/12/04 12:39:50;;;;;;;17.93;9.30;;;1.70;99.90;;;;;;5053519;28;20448;-50
2022/12/04 12:42:23;;;;;;;25.53;14.10;;;1.70;99.90;;;;;;5053995;28;20444;-53
2022/12/04 12:44:56;;;;;;;22.37;14.17;;;1.70;99.90;;;;;;5054036;28;20889;-53
2022/12/04 12:47:27;;;;;;;24.67;13.00;;;1.70;99.90;;;;;;5045535;28;20462;-53
2022/12/04 12:49:59;;;;;;;20.63;13.27;;;1.70;99.90;;;;;;5043036;28;20460;-50
2022/12/04 12:52:34;;;;;;;24.50;12.63;;;1.70;99.90;;;;;;5042301;28;20503;-51
2022/12/04 12:55:03;;;;;;;23.53;13.43;;;1.70;99.90;;;;;;5034273;28;20523;-52
2022/12/04 12:57:36;;;;;;;25.43;13.50;;;1.80;99.90;;;;;;5033822;28;20459;-54
2022/12/04 13:00:06;;;;;;;25.87;11.80;;;1.80;99.90;;;;;;5034012;28;20452;-52
2022/12/04 13:02:38;;;;;;;21.57;10.90;;;1.70;99.90;;;;;;5034332;28;20445;-54